createdAt,value
2019-05-23T00:00:15.876Z,101650.09
2019-05-23T00:03:45.855Z,101654.43
2019-05-23T00:07:15.838Z,101656.84
2019-05-23T00:10:45.782Z,101656.43
2019-05-23T00:14:15.746Z,101654.91
2019-05-23T00:17:45.731Z,101653.87
2019-05-23T00:21:15.718Z,101652.57
2019-05-23T00:24:45.674Z,101648.56
2019-05-23T00:28:15.643Z,101652.59
2019-05-23T00:31:45.595Z,101651.38
2019-05-23T00:35:15.558Z,101643.48
2019-05-23T00:38:45.647Z,101658.2
2019-05-23T00:42:15.567Z,101654.26
2019-05-23T00:45:45.532Z,101656.15
2019-05-23T00:49:16.323Z,101657.39
2019-05-23T00:52:47.270Z,101651.7
2019-05-23T00:56:17.391Z,101656.14
2019-05-23T00:59:47.369Z,101655.79
2019-05-23T01:03:17.333Z,101657.87
2019-05-23T01:06:47.276Z,101659.07
2019-05-23T01:10:17.232Z,101655.82
2019-05-23T01:13:47.299Z,101661.28
2019-05-23T01:17:17.256Z,101663.36
2019-05-23T01:20:48.189Z,101668.13
2019-05-23T01:24:18.148Z,101666.2
2019-05-23T01:27:48.101Z,101661.97
2019-05-23T01:31:19.104Z,101661.38
2019-05-23T01:34:49.058Z,101664.16
2019-05-23T01:38:19.015Z,101668.76
2019-05-23T01:41:48.953Z,101666.85
2019-05-23T01:45:18.952Z,101664.57
2019-05-23T01:48:49.016Z,101665.46
2019-05-23T01:52:18.957Z,101665.53
2019-05-23T01:55:48.940Z,101670.68
2019-05-23T01:59:18.904Z,101666.5
2019-05-23T02:02:48.838Z,101670.28
2019-05-23T02:06:18.855Z,101662.96
2019-05-23T02:09:48.817Z,101666.89
2019-05-23T02:13:18.759Z,101666.14
2019-05-23T02:16:48.727Z,101662.02
2019-05-23T02:20:16.692Z,101657.06
2019-05-23T02:23:46.631Z,101658.71
2019-05-23T02:27:16.589Z,101659.73
2019-05-23T02:30:46.554Z,101657.75
2019-05-23T02:34:16.699Z,101655.17
2019-05-23T02:37:46.639Z,101657.34
2019-05-23T02:41:16.654Z,101654.17
2019-05-23T02:44:46.624Z,101653.73
2019-05-23T02:48:16.613Z,101651.64
2019-05-23T02:51:46.588Z,101656.26
2019-05-23T02:55:16.555Z,101659.71
2019-05-23T02:58:47.183Z,101658.45
2019-05-23T03:02:17.147Z,101660.28
2019-05-23T03:05:48.136Z,101654.39
2019-05-23T03:09:19.152Z,101656.96
2019-05-23T03:12:49.110Z,101658.87
2019-05-23T03:16:19.180Z,101658.06
2019-05-23T03:19:49.108Z,101662.39
2019-05-23T03:23:19.050Z,101663.53
2019-05-23T03:26:50.002Z,101663.03
2019-05-23T03:30:19.941Z,101662.78
2019-05-23T03:33:49.982Z,101658.72
2019-05-23T03:37:19.939Z,101660.1
2019-05-23T03:40:49.894Z,101657.75
2019-05-23T03:44:19.837Z,101659.32
2019-05-23T03:47:49.807Z,101664.4
2019-05-23T03:51:19.799Z,101661.92
2019-05-23T03:54:49.743Z,101669.9
2019-05-23T03:58:19.744Z,101667.29
2019-05-23T04:01:50.722Z,101672.21
2019-05-23T04:05:20.661Z,101673.92
2019-05-23T04:08:50.628Z,101670.14
2019-05-23T04:12:20.609Z,101666.16
2019-05-23T04:15:50.551Z,101674.17
2019-05-23T04:19:21.126Z,101679.35
2019-05-23T04:22:51.142Z,101677.15
2019-05-23T04:26:21.244Z,101681.9
2019-05-23T04:29:51.206Z,101682.46
2019-05-23T04:33:21.169Z,101685.82
2019-05-23T04:36:51.116Z,101685.78
2019-05-23T04:40:21.127Z,101686.44
2019-05-23T04:43:52.013Z,101691.38
2019-05-23T04:47:26.371Z,101690.03
2019-05-23T04:51:00.050Z,101690.69
2019-05-23T04:54:30.260Z,101694.56
2019-05-23T04:58:04.124Z,101694.83
2019-05-23T05:01:33.275Z,101705.32
2019-05-23T05:05:03.227Z,101700.85
2019-05-23T05:08:33.190Z,101707.32
2019-05-23T05:12:03.132Z,101710.45
2019-05-23T05:15:34.198Z,101719.98
2019-05-23T05:19:04.166Z,101724.54
2019-05-23T05:22:34.110Z,101718.65
2019-05-23T05:26:04.077Z,101719.51
2019-05-23T05:29:34.037Z,101725.56
2019-05-23T05:33:04.164Z,101720.98
2019-05-23T05:36:34.123Z,101728.71
2019-05-23T05:40:04.075Z,101725.78
2019-05-23T05:43:34.067Z,101736.59
2019-05-23T05:47:04.022Z,101736.04
2019-05-23T05:50:34.120Z,101745.74
2019-05-23T05:54:04.133Z,101738.81
2019-05-23T05:57:34.093Z,101745.79
2019-05-23T06:01:04.047Z,101755.14
2019-05-23T06:04:34.002Z,101760.35
2019-05-23T06:08:04.105Z,101759.76
2019-05-23T06:11:34.105Z,101760.45
2019-05-23T06:15:03.445Z,101762.81
2019-05-23T06:18:33.072Z,101768.35
2019-05-23T06:22:03.027Z,101773.73
2019-05-23T06:25:33.186Z,101760.96
2019-05-23T06:29:03.134Z,101773.46
2019-05-23T06:32:33.099Z,101767.79
2019-05-23T06:36:03.060Z,101770.71
2019-05-23T06:39:33.023Z,101774.48
2019-05-23T06:43:03.981Z,101774.99
2019-05-23T06:46:34.526Z,101775.21
2019-05-23T06:50:04.509Z,101777.54
2019-05-23T06:53:34.480Z,101792
2019-05-23T06:57:04.591Z,101783.25
2019-05-23T07:00:34.601Z,101778.93
2019-05-23T07:04:04.561Z,101781.67
2019-05-23T07:07:34.540Z,101782.64
2019-05-23T07:11:04.608Z,101789.98
2019-05-23T07:14:34.457Z,101791.7
2019-05-23T07:18:05.465Z,101786.85
2019-05-23T07:21:35.413Z,101797.6
2019-05-23T07:25:05.377Z,101806.65
2019-05-23T07:28:35.341Z,101805.09
2019-05-23T07:32:05.289Z,101808.64
2019-05-23T07:35:36.258Z,101809.37
2019-05-23T07:39:07.227Z,101813.67
2019-05-23T07:42:38.160Z,101820
2019-05-23T07:46:08.130Z,101819.92
2019-05-23T07:49:38.338Z,101812.93
2019-05-23T07:53:08.300Z,101816.96
2019-05-23T07:56:38.233Z,101823.92
2019-05-23T08:00:08.200Z,101826.12
2019-05-23T08:03:38.158Z,101824.6
2019-05-23T08:07:09.128Z,101815.68
2019-05-23T08:10:39.097Z,101821.38
2019-05-23T08:14:12.129Z,101815.81
2019-05-23T08:17:42.046Z,101816.34
2019-05-23T08:21:12.019Z,101816.81
2019-05-23T08:24:42.076Z,101819.4
2019-05-23T08:28:12.067Z,101812.46
2019-05-23T08:31:42.007Z,101811.68
2019-05-23T08:35:16.826Z,101814.51
2019-05-23T08:38:45.087Z,101816.66
2019-05-23T08:42:15.029Z,101817.1
2019-05-23T08:45:45.022Z,101819.95
2019-05-23T08:49:14.977Z,101818.44
2019-05-23T08:52:44.966Z,101822.4
2019-05-23T08:56:19.400Z,101819.45
2019-05-23T08:59:47.877Z,101824.56
2019-05-23T09:03:17.863Z,101817.17
2019-05-23T09:06:47.822Z,101813.5
2019-05-23T09:10:17.844Z,101818.32
2019-05-23T09:13:47.911Z,101819.28
2019-05-23T09:17:18.871Z,101818.54
2019-05-23T09:20:49.771Z,101823.35
2019-05-23T09:24:19.728Z,101828.59
2019-05-23T09:27:51.007Z,101824.26
2019-05-23T09:31:20.713Z,101812.79
2019-05-23T09:34:50.669Z,101828.42
2019-05-23T09:38:21.684Z,101829.85
2019-05-23T09:41:51.620Z,101837.03
2019-05-23T09:45:21.591Z,101829.84
2019-05-23T09:48:51.630Z,101832.44
2019-05-23T09:52:21.589Z,101839.03
2019-05-23T09:55:51.556Z,101826.13
2019-05-23T09:59:22.524Z,101837.82
2019-05-23T10:02:52.537Z,101838.59
2019-05-23T10:06:24.069Z,101846.64
2019-05-23T10:09:52.044Z,101850.79
2019-05-23T10:13:38.183Z,101847.78
2019-05-23T10:16:56.894Z,101829.51
2019-05-23T10:20:26.903Z,101858.62
2019-05-23T10:23:56.889Z,101852.01
2019-05-23T10:27:26.843Z,101855.46
2019-05-23T10:30:56.833Z,101838.18
2019-05-23T10:34:26.822Z,101842.78
2019-05-23T10:37:56.982Z,101844.24
2019-05-23T10:41:27.929Z,101838.09
2019-05-23T10:44:57.890Z,101825.48
2019-05-23T10:48:27.863Z,101811.82
2019-05-23T10:51:58.571Z,101813.42
2019-05-23T10:55:28.726Z,101812.46
2019-05-23T10:58:58.710Z,101803.73
2019-05-23T11:02:28.693Z,101809.04
2019-05-23T11:06:13.247Z,101803.15
2019-05-23T11:09:37.617Z,101799.59
2019-05-23T11:13:07.901Z,101800.07
2019-05-23T11:16:38.854Z,101803.23
2019-05-23T11:20:08.810Z,101784.9
2019-05-23T11:23:38.790Z,101796.76
2019-05-23T11:27:09.364Z,101798.6
2019-05-23T11:30:39.529Z,101799.7
2019-05-23T11:34:09.489Z,101794.62
2019-05-23T11:37:41.958Z,101805.21
2019-05-23T11:41:11.435Z,101795.95
2019-05-23T11:44:41.510Z,101796.23
2019-05-23T11:48:11.552Z,101794.32
2019-05-23T11:51:42.597Z,101792.6
2019-05-23T11:55:12.653Z,101790.45
2019-05-23T11:58:43.777Z,101797.04
2019-05-23T12:02:13.832Z,101791.07
2019-05-23T12:05:43.809Z,101777.95
2019-05-23T12:09:13.792Z,101777.74
2019-05-23T12:12:43.941Z,101770.51
2019-05-23T12:16:13.772Z,101772.82
2019-05-23T12:19:43.905Z,101771.85
2019-05-23T12:23:13.879Z,101763.2
2019-05-23T12:26:43.859Z,101767.45
2019-05-23T12:30:13.826Z,101764.64
2019-05-23T12:33:43.797Z,101759.59
2019-05-23T12:37:19.810Z,101771.51
2019-05-23T12:40:47.908Z,101753.47
2019-05-23T12:44:19.009Z,101764.15
2019-05-23T12:47:48.970Z,101762.78
2019-05-23T12:51:19.616Z,101758.78
2019-05-23T12:54:49.606Z,101756.49
2019-05-23T12:58:19.670Z,101751.32
2019-05-23T13:01:49.621Z,101751.29
2019-05-23T13:05:19.587Z,101751.17
2019-05-23T13:08:50.711Z,101738.46
2019-05-23T13:12:20.643Z,101734.78
2019-05-23T13:15:50.605Z,101740.7
2019-05-23T13:19:20.619Z,101742.11
2019-05-23T13:22:51.613Z,101740.79
2019-05-23T13:26:21.703Z,101738.79
2019-05-23T13:29:52.659Z,101731.9
2019-05-23T13:33:22.648Z,101731.9
2019-05-23T13:36:52.636Z,101727.14
2019-05-23T13:40:22.593Z,101732.81
2019-05-23T13:43:52.677Z,101728.05
2019-05-23T13:47:22.620Z,101726.39
2019-05-23T13:50:52.594Z,101723.25
2019-05-23T13:54:22.560Z,101727.98
2019-05-23T13:57:52.691Z,101721.11
2019-05-23T14:01:22.848Z,101714.92
2019-05-23T14:04:50.954Z,101717.42
2019-05-23T14:08:20.911Z,101710.78
2019-05-23T14:12:19.423Z,101708.56
2019-05-23T14:15:25.711Z,101706.4
2019-05-23T14:18:56.707Z,101708.21
2019-05-23T14:22:26.689Z,101716.01
2019-05-23T14:26:14.880Z,101703.7
2019-05-23T14:29:45.411Z,101705.1
2019-05-23T14:33:15.974Z,101703.76
2019-05-23T14:36:46.097Z,101696.55
2019-05-23T14:40:16.257Z,101702.47
2019-05-23T14:43:46.611Z,101700.85
2019-05-23T14:47:16.665Z,101705.85
2019-05-23T14:50:46.738Z,101695.48
2019-05-23T14:54:16.887Z,101695.18
2019-05-23T14:57:46.947Z,101689.5
2019-05-23T15:01:18.148Z,101692.21
2019-05-23T15:04:49.113Z,101684.18
2019-05-23T15:08:19.294Z,101679.7
2019-05-23T15:11:49.416Z,101685.81
2019-05-23T15:15:19.579Z,101672.54
2019-05-23T15:18:49.733Z,101668.92
2019-05-23T15:22:19.771Z,101674.4
2019-05-23T15:25:49.922Z,101665.25
2019-05-23T15:29:19.884Z,101661.21
2019-05-23T15:32:49.853Z,101662.98
2019-05-23T15:36:19.927Z,101651.93
2019-05-23T15:39:49.910Z,101658.15
2019-05-23T15:43:19.870Z,101651.5
2019-05-23T15:46:49.829Z,101652.32
2019-05-23T15:50:19.797Z,101649.79
2019-05-23T15:53:50.921Z,101646.25
2019-05-23T15:57:20.904Z,101649.89
2019-05-23T16:00:51.110Z,101651.34
2019-05-23T16:04:20.908Z,101646.75
2019-05-23T16:07:50.907Z,101642.22
2019-05-23T16:11:20.918Z,101644.29
2019-05-23T16:14:51.005Z,101644.14
2019-05-23T16:18:21.119Z,101641.48
2019-05-23T16:21:51.115Z,101636.1
2019-05-23T16:25:21.129Z,101640.99
2019-05-23T16:28:51.267Z,101635.55
2019-05-23T16:32:21.828Z,101631.51
2019-05-23T16:35:51.832Z,101636.03
2019-05-23T16:39:22.811Z,101640.33
2019-05-23T16:42:52.837Z,101635.5
2019-05-23T16:46:23.021Z,101635.7
2019-05-23T16:49:53.049Z,101631.56
2019-05-23T16:53:23.144Z,101626.51
2019-05-23T16:56:53.196Z,101627.42
2019-05-23T17:00:24.197Z,101632.31
2019-05-23T17:03:57.701Z,101631.56
2019-05-23T17:07:26.390Z,101633.89
2019-05-23T17:10:56.372Z,101631.81
2019-05-23T17:14:26.423Z,101628.48
2019-05-23T17:18:02.584Z,101630.92
2019-05-23T17:21:30.512Z,101627.45
2019-05-23T17:25:00.528Z,101621.17
2019-05-23T17:28:30.715Z,101622.49
2019-05-23T17:32:02.038Z,101621.39
2019-05-23T17:35:32.137Z,101626.17
2019-05-23T17:39:02.152Z,101623.29
2019-05-23T17:42:32.203Z,101616.81
2019-05-23T17:46:02.204Z,101614.04
2019-05-23T17:49:32.188Z,101615.37
2019-05-23T17:53:02.184Z,101609.89
2019-05-23T17:56:32.218Z,101612.31
2019-05-23T18:00:00.378Z,101611.63
2019-05-23T18:03:30.509Z,101609.93
2019-05-23T18:07:00.572Z,101609.51
2019-05-23T18:10:43.617Z,101607.71
2019-05-23T18:14:05.519Z,101611.24
2019-05-23T18:17:35.529Z,101613.14
2019-05-23T18:21:05.541Z,101606.37
2019-05-23T18:24:36.637Z,101607.54
2019-05-23T18:28:06.617Z,101609.42
2019-05-23T18:31:36.657Z,101608.03
2019-05-23T18:35:07.315Z,101610.53
2019-05-23T18:38:37.347Z,101603.94
2019-05-23T18:42:08.400Z,101605.22
2019-05-23T18:45:38.507Z,101608.98
2019-05-23T18:49:08.603Z,101606.89
2019-05-23T18:52:38.647Z,101604.24
2019-05-23T18:56:08.664Z,101606.35
2019-05-23T18:59:38.708Z,101604.21
2019-05-23T19:03:08.721Z,101605.51
2019-05-23T19:06:38.729Z,101603.96
2019-05-23T19:10:08.709Z,101608.42
2019-05-23T19:13:38.728Z,101611.04
2019-05-23T19:17:08.977Z,101615.09
2019-05-23T19:20:40.013Z,101615.64
2019-05-23T19:24:10.073Z,101611.28
2019-05-23T19:27:40.103Z,101612.96
2019-05-23T19:31:10.119Z,101608.71
2019-05-23T19:34:40.277Z,101611.97
2019-05-23T19:38:10.287Z,101612.84
2019-05-23T19:41:40.458Z,101610.03
2019-05-23T19:45:10.456Z,101610.26
2019-05-23T19:48:40.568Z,101601.87
2019-05-23T19:52:10.709Z,101602.62
2019-05-23T19:55:42.770Z,101597.82
2019-05-23T19:59:12.792Z,101599.21
2019-05-23T20:02:42.773Z,101595.28
2019-05-23T20:06:12.773Z,101593.99
2019-05-23T20:09:42.827Z,101593.93
2019-05-23T20:13:12.869Z,101593.39
2019-05-23T20:16:44.797Z,101588.62
2019-05-23T20:20:14.798Z,101589.96
2019-05-23T20:23:44.892Z,101589.5
2019-05-23T20:27:15.141Z,101595.32
2019-05-23T20:30:45.188Z,101593.39
2019-05-23T20:34:15.864Z,101592.14
2019-05-23T20:37:45.974Z,101594.06
2019-05-23T20:41:16.111Z,101590.76
2019-05-23T20:44:46.201Z,101596.81
2019-05-23T20:48:16.270Z,101590.73
2019-05-23T20:51:46.328Z,101592.5
2019-05-23T20:55:16.332Z,101589.17
2019-05-23T20:58:46.472Z,101597.19
2019-05-23T21:02:16.436Z,101596.32
2019-05-23T21:05:46.441Z,101589.7
2019-05-23T21:09:17.452Z,101588.44
2019-05-23T21:12:47.475Z,101576.49
2019-05-23T21:16:18.217Z,101577.9
2019-05-23T21:19:48.220Z,101579.39
2019-05-23T21:23:18.237Z,101571.9
2019-05-23T21:26:48.330Z,101567.93
2019-05-23T21:30:18.502Z,101573.19
2019-05-23T21:33:48.741Z,101568.53
2019-05-23T21:37:18.843Z,101568.15
2019-05-23T21:40:48.942Z,101573.22
2019-05-23T21:44:19.101Z,101568.17
2019-05-23T21:47:50.165Z,101564.94
2019-05-23T21:51:20.343Z,101566.57
2019-05-23T21:54:50.409Z,101559.5
2019-05-23T21:58:21.413Z,101555.92
2019-05-23T22:01:51.489Z,101556.98
2019-05-23T22:05:21.798Z,101554.26
2019-05-23T22:08:51.956Z,101548.57
2019-05-23T22:12:22.043Z,101545.35
2019-05-23T22:15:52.972Z,101542.51
2019-05-23T22:19:23.028Z,101542.55
2019-05-23T22:22:52.966Z,101540.45
2019-05-23T22:26:23.098Z,101535.18
2019-05-23T22:29:53.114Z,101537.69
2019-05-23T22:33:24.108Z,101535.84
2019-05-23T22:36:54.103Z,101530.18
2019-05-23T22:40:24.134Z,101532.64
2019-05-23T22:43:54.310Z,101533.21
2019-05-23T22:47:24.307Z,101533.59
2019-05-23T22:50:54.368Z,101528.98
2019-05-23T22:54:24.797Z,101524.73
2019-05-23T22:57:54.795Z,101525.42
2019-05-23T23:01:24.839Z,101520.33
2019-05-23T23:04:55.883Z,101514.63
2019-05-23T23:08:25.906Z,101519.28
2019-05-23T23:11:55.914Z,101515.25
2019-05-23T23:15:26.061Z,101513.7
2019-05-23T23:18:56.885Z,101511.7
2019-05-23T23:22:26.923Z,101504.06
2019-05-23T23:25:56.889Z,101502.67
2019-05-23T23:29:27.861Z,101500.51
2019-05-23T23:32:57.961Z,101501.94
2019-05-23T23:36:27.899Z,101494.71
2019-05-23T23:39:57.933Z,101492.17
2019-05-23T23:43:27.960Z,101488.03
2019-05-23T23:46:58.002Z,101486.96
2019-05-23T23:50:28.157Z,101482.35
2019-05-23T23:53:58.428Z,101481.4
2019-05-23T23:57:29.425Z,101482.65
